Time;durP1;ratioP1;P1;durP2;ratioP2;P2;SDS_P1;SDS_P2;PMS_P1;PMS_P2;Temp;Humidity;BMP_temperature;BMP_pressure;BME280_temperature;BME280_humidity;BME280_pressure;Samples;Min_cycle;Max_cycle;Signal;HPM_P1;HPM_P2
2021/08/11 00:00:05;;;;;;;7.47;4.95;;;;;;;11.69;100.00;93437.69;2097419;28;20020;-86
2021/08/11 00:01:06;;;;;;;6.10;4.85;;;;;;;11.73;100.00;93430.34;2089228;28;20040;-87
2021/08/11 00:02:08;;;;;;;5.25;4.75;;;;;;;11.71;100.00;93436.09;2097428;28;20070;-84
2021/08/11 00:03:08;;;;;;;5.55;4.75;;;;;;;11.74;100.00;93432.59;2090904;28;20503;-86
2021/08/11 00:04:09;;;;;;;5.65;4.60;;;;;;;11.75;100.00;93436.03;2105526;28;20024;-85
2021/08/11 00:05:11;;;;;;;6.00;4.15;;;;;;;11.72;100.00;93434.94;2085245;28;20064;-86
2021/08/11 00:06:12;;;;;;;5.68;5.13;;;;;;;11.65;100.00;93435.09;2089240;28;20048;-86
2021/08/11 00:07:13;;;;;;;4.90;4.40;;;;;;;11.73;100.00;93435.69;2088763;28;20116;-85
2021/08/11 00:08:14;;;;;;;7.18;4.78;;;;;;;11.70;100.00;93431.16;2084319;28;20037;-84
2021/08/11 00:09:14;;;;;;;4.80;4.00;;;;;;;11.72;100.00;93434.16;2105748;28;20035;-84
2021/08/11 00:10:15;;;;;;;6.70;4.70;;;;;;;11.67;100.00;93432.00;2105919;28;20561;-85
2021/08/11 00:11:17;;;;;;;6.85;4.80;;;;;;;11.68;100.00;93439.63;2083646;28;20506;-86
2021/08/11 00:12:17;;;;;;;7.03;5.47;;;;;;;11.67;100.00;93434.66;2091256;28;20021;-84
2021/08/11 00:13:18;;;;;;;5.38;4.88;;;;;;;11.62;100.00;93433.22;2097111;28;20048;-85
2021/08/11 00:14:19;;;;;;;5.03;4.50;;;;;;;11.63;100.00;93436.66;2105447;28;20020;-86
2021/08/11 00:15:20;;;;;;;7.28;4.70;;;;;;;11.59;100.00;93442.09;2105472;28;20053;-84
2021/08/11 00:16:22;;;;;;;6.32;4.97;;;;;;;11.49;100.00;93440.38;2097285;28;20077;-87
2021/08/11 00:17:23;;;;;;;6.28;4.65;;;;;;;11.48;100.00;93438.88;2089034;28;20021;-86
2021/08/11 00:18:24;;;;;;;5.72;4.63;;;;;;;11.49;100.00;93435.03;2097551;28;20138;-85
2021/08/11 00:19:25;;;;;;;4.78;4.20;;;;;;;11.42;100.00;93435.94;2097187;28;20028;-86
2021/08/11 00:20:26;;;;;;;7.50;4.63;;;;;;;11.47;100.00;93434.69;2092768;28;20036;-87
2021/08/11 00:21:27;;;;;;;4.97;4.57;;;;;;;11.43;100.00;93434.00;2097011;28;20489;-85
2021/08/11 00:22:28;;;;;;;4.80;4.28;;;;;;;11.43;100.00;93431.34;2097294;28;20024;-84
2021/08/11 00:23:29;;;;;;;10.95;4.70;;;;;;;11.47;100.00;93432.03;2105954;28;20103;-86
2021/08/11 00:24:30;;;;;;;5.72;4.25;;;;;;;11.50;100.00;93439.22;2097420;28;20032;-84
2021/08/11 00:25:31;;;;;;;5.72;4.75;;;;;;;11.54;100.00;93437.22;2097291;28;20401;-86
2021/08/11 00:26:32;;;;;;;6.43;4.85;;;;;;;11.51;100.00;93436.13;2105288;28;20062;-84
2021/08/11 00:27:33;;;;;;;5.97;4.72;;;;;;;11.51;100.00;93436.13;2097050;28;20028;-85
2021/08/11 00:28:34;;;;;;;5.65;4.78;;;;;;;11.52;100.00;93436.88;2097165;28;20070;-84
2021/08/11 00:29:35;;;;;;;5.18;4.57;;;;;;;11.50;100.00;93437.31;2097688;28;20099;-87
2021/08/11 00:30:36;;;;;;;4.80;4.40;;;;;;;11.51;100.00;93440.75;2089212;28;20033;-83
2021/08/11 00:31:37;;;;;;;9.10;6.20;;;;;;;11.53;100.00;93435.72;2093221;28;20044;-86
2021/08/11 00:32:38;;;;;;;5.45;4.90;;;;;;;11.50;100.00;93434.63;2113445;28;20070;-86
2021/08/11 00:33:39;;;;;;;5.30;4.80;;;;;;;11.49;100.00;93427.75;2105443;28;20294;-85
2021/08/11 00:34:41;;;;;;;6.75;4.70;;;;;;;11.46;100.00;93436.63;2097355;28;20012;-87
2021/08/11 00:35:42;;;;;;;7.80;5.20;;;;;;;11.42;100.00;93432.50;2089170;28;20048;-85
2021/08/11 00:36:43;;;;;;;5.18;4.68;;;;;;;11.41;100.00;93431.72;2089055;28;20543;-86
2021/08/11 00:37:44;;;;;;;5.32;4.82;;;;;;;11.33;100.00;93433.06;2086525;28;20021;-85
2021/08/11 00:38:45;;;;;;;8.27;4.90;;;;;;;11.37;100.00;93436.44;2096812;28;20024;-86
2021/08/11 00:39:46;;;;;;;5.22;4.72;;;;;;;11.38;100.00;93427.22;2097310;28;20447;-87
2021/08/11 00:40:47;;;;;;;6.53;4.60;;;;;;;11.44;100.00;93436.28;2097306;28;20024;-85
2021/08/11 00:41:48;;;;;;;6.85;5.20;;;;;;;11.45;100.00;93434.34;2105610;28;20121;-85
2021/08/11 00:42:49;;;;;;;7.82;4.88;;;;;;;11.38;100.00;93434.50;2091511;28;20417;-84
2021/08/11 00:43:52;;;;;;;10.07;5.03;;;;;;;11.47;100.00;93435.44;2088575;28;20390;-86
2021/08/11 00:44:53;;;;;;;5.50;4.40;;;;;;;11.40;100.00;93432.16;2089398;28;20025;-87
2021/08/11 00:45:54;;;;;;;6.53;5.47;;;;;;;11.39;100.00;93439.44;2096999;28;20024;-85
2021/08/11 00:46:55;;;;;;;5.22;4.55;;;;;;;11.40;100.00;93432.91;2096368;28;20592;-86
2021/08/11 00:47:56;;;;;;;6.95;4.60;;;;;;;11.32;100.00;93426.19;2088636;28;20033;-85
2021/08/11 00:48:58;;;;;;;6.15;4.50;;;;;;;11.29;100.00;93438.47;2096983;28;20024;-83
2021/08/11 00:49:59;;;;;;;6.25;4.78;;;;;;;11.37;100.00;93428.41;2105501;28;20465;-88
2021/08/11 00:51:00;;;;;;;5.18;4.53;;;;;;;11.35;100.00;93431.47;2092338;28;20028;-84
2021/08/11 00:52:02;;;;;;;5.40;4.85;;;;;;;11.35;100.00;93430.72;2075937;28;20061;-86
2021/08/11 00:53:06;;;;;;;4.68;4.22;;;;;;;11.28;100.00;93428.94;2089333;28;20115;-86
2021/08/11 00:54:08;;;;;;;5.10;4.70;;;;;;;11.22;100.00;93435.94;2105803;28;20024;-86
2021/08/11 00:55:10;;;;;;;4.85;4.45;;;;;;;11.21;100.00;93425.66;2092938;28;20036;-85
2021/08/11 00:56:12;;;;;;;9.63;4.97;;;;;;;11.14;100.00;93429.19;2097154;28;20040;-86
2021/08/11 00:57:14;;;;;;;5.35;4.78;;;;;;;11.18;100.00;93427.22;2105569;28;20509;-86
2021/08/11 00:58:19;;;;;;;7.00;5.22;;;;;;;11.19;100.00;93433.31;2096990;28;20334;-86
2021/08/11 00:59:22;;;;;;;10.52;4.88;;;;;;;11.18;100.00;93431.81;2097345;28;20458;-84
2021/08/11 01:00:23;;;;;;;6.40;5.30;;;;;;;11.16;100.00;93424.22;2097427;28;20032;-86
2021/08/11 01:01:26;;;;;;;7.57;5.53;;;;;;;11.15;100.00;93421.91;2097255;28;20837;-86
2021/08/11 01:02:27;;;;;;;5.97;5.38;;;;;;;11.20;100.00;93432.91;2096760;28;20032;-85
2021/08/11 01:03:29;;;;;;;5.85;4.82;;;;;;;11.19;100.00;93425.28;2087329;28;20553;-83
2021/08/11 01:04:32;;;;;;;6.47;4.78;;;;;;;11.16;100.00;93431.47;2089097;28;20025;-84
2021/08/11 01:05:33;;;;;;;5.03;4.53;;;;;;;11.16;100.00;93426.88;2089033;28;20013;-86
2021/08/11 01:06:36;;;;;;;6.45;4.63;;;;;;;11.08;100.00;93420.91;2096469;28;20044;-84
2021/08/11 01:07:38;;;;;;;8.27;4.72;;;;;;;11.12;100.00;93425.44;2096926;28;20021;-83
2021/08/11 01:08:40;;;;;;;7.95;4.75;;;;;;;11.19;100.00;93422.63;2092914;28;20572;-84
2021/08/11 01:09:42;;;;;;;8.80;5.40;;;;;;;11.16;100.00;93424.22;2097091;28;20028;-84
2021/08/11 01:10:46;;;;;;;5.53;4.85;;;;;;;11.13;100.00;93432.28;2105852;28;20027;-84
2021/08/11 01:11:49;;;;;;;5.95;5.20;;;;;;;11.12;100.00;93426.19;2113891;28;20066;-86
2021/08/11 01:12:50;;;;;;;5.40;4.85;;;;;;;11.14;100.00;93429.19;2108863;28;20070;-86
2021/08/11 01:13:51;;;;;;;6.05;5.28;;;;;;;11.17;100.00;93439.09;2100905;28;20078;-86
2021/08/11 01:14:53;;;;;;;10.68;5.05;;;;;;;11.13;100.00;93430.38;2096862;28;20016;-86
2021/08/11 01:15:55;;;;;;;6.70;4.78;;;;;;;11.14;100.00;93439.91;2105629;28;20528;-84
2021/08/11 01:16:56;;;;;;;6.43;4.78;;;;;;;11.14;100.00;93429.19;2113672;28;20031;-85
2021/08/11 01:17:57;;;;;;;6.40;4.47;;;;;;;11.16;100.00;93431.47;2096193;28;20031;-84
2021/08/11 01:18:58;;;;;;;8.65;4.57;;;;;;;11.14;100.00;93429.19;2105373;28;20032;-86
2021/08/11 01:20:03;;;;;;;7.55;4.50;;;;;;;11.09;100.00;93425.09;2105282;28;20032;-85
2021/08/11 01:21:26;;;;;;;7.38;5.53;;;;;;;11.06;100.00;93425.16;2105104;28;20036;-87
2021/08/11 01:22:38;;;;;;;5.40;4.60;;;;;;;11.07;100.00;93424.75;2103090;28;20030;-86
2021/08/11 01:23:45;;;;;;;7.45;5.03;;;;;;;11.14;100.00;93426.53;2097581;28;20024;-85
2021/08/11 01:25:06;;;;;;;6.25;4.90;;;;;;;11.13;100.00;93422.34;2097902;28;20068;-84
2021/08/11 01:26:19;;;;;;;8.07;5.10;;;;;;;11.12;100.00;93422.75;2094559;28;20037;-84
2021/08/11 01:27:28;;;;;;;5.30;4.53;;;;;;;11.09;100.00;93427.75;2098300;28;20025;-86
2021/08/11 01:28:42;;;;;;;5.18;4.55;;;;;;;11.10;100.00;93429.25;2097779;28;20111;-87
2021/08/11 01:30:05;;;;;;;7.88;5.10;;;;;;;11.08;100.00;93428.19;2083601;28;20496;-86
2021/08/11 01:31:16;;;;;;;5.93;4.82;;;;;;;11.07;100.00;93430.09;2094845;28;20039;-89
2021/08/11 01:32:32;;;;;;;5.35;4.55;;;;;;;11.02;100.00;93430.59;2091191;28;20493;-85
2021/08/11 01:33:53;;;;;;;6.47;4.47;;;;;;;10.97;100.00;93423.00;2086043;28;20432;-85
2021/08/11 01:34:59;;;;;;;5.15;4.38;;;;;;;10.90;100.00;93425.81;2093477;28;20659;-86
2021/08/11 01:36:15;;;;;;;6.63;4.53;;;;;;;10.92;100.00;93425.41;2089748;28;20071;-87
2021/08/11 01:37:24;;;;;;;5.05;4.18;;;;;;;10.96;100.00;93426.09;2090822;28;20028;-87
2021/08/11 01:38:28;;;;;;;4.60;4.20;;;;;;;10.98;100.00;93424.53;2089403;28;20111;-84
2021/08/11 01:39:30;;;;;;;7.07;4.55;;;;;;;10.91;100.00;93431.94;2105306;28;20454;-85
2021/08/11 01:40:34;;;;;;;5.30;4.80;;;;;;;10.96;100.00;93426.84;2105063;28;20027;-85
2021/08/11 01:41:43;;;;;;;5.45;4.50;;;;;;;10.90;100.00;93425.06;2089339;28;20035;-84
2021/08/11 01:42:45;;;;;;;6.70;4.60;;;;;;;10.88;100.00;93419.38;2089621;28;20024;-85
2021/08/11 01:43:48;;;;;;;6.60;4.95;;;;;;;10.92;100.00;93423.47;2096644;28;20028;-87
2021/08/11 01:44:53;;;;;;;6.65;4.90;;;;;;;10.93;100.00;93426.91;2105399;28;20034;-84
2021/08/11 01:45:56;;;;;;;4.90;4.45;;;;;;;10.92;100.00;93428.09;2105138;28;20024;-86
2021/08/11 01:46:58;;;;;;;7.32;4.40;;;;;;;10.93;100.00;93427.69;2088649;28;20158;-84
2021/08/11 01:48:04;;;;;;;6.07;4.70;;;;;;;10.92;100.00;93431.50;2096728;28;20075;-86
2021/08/11 01:49:08;;;;;;;4.70;4.30;;;;;;;10.94;100.00;93423.84;2105911;28;20023;-88
2021/08/11 01:50:12;;;;;;;5.25;4.72;;;;;;;10.99;100.00;93422.63;2105756;28;20434;-85
2021/08/11 01:51:13;;;;;;;4.68;4.13;;;;;;;11.02;100.00;93429.81;2097430;28;20025;-85
2021/08/11 01:52:16;;;;;;;4.75;4.15;;;;;;;11.00;100.00;93429.47;2088441;28;20048;-87
2021/08/11 01:53:19;;;;;;;4.45;3.90;;;;;;;10.96;100.00;93426.09;2097463;28;20024;-85
2021/08/11 01:54:24;;;;;;;8.52;4.13;;;;;;;11.00;100.00;93426.78;2105050;28;20020;-86
2021/08/11 01:55:25;;;;;;;5.80;3.67;;;;;;;11.00;100.00;93424.88;2090301;28;20103;-85
2021/08/11 01:56:26;;;;;;;5.75;3.80;;;;;;;10.94;100.00;93429.19;2094880;28;20028;-84
2021/08/11 01:57:27;;;;;;;3.92;3.63;;;;;;;10.94;100.00;93423.09;2087911;28;20016;-84
2021/08/11 01:58:30;;;;;;;4.25;3.25;;;;;;;10.96;100.00;93418.06;2087707;28;20506;-83
2021/08/11 01:59:31;;;;;;;4.60;3.38;;;;;;;10.96;100.00;93421.50;2097197;28;20074;-85
2021/08/11 02:00:33;;;;;;;4.03;3.05;;;;;;;10.91;100.00;93423.91;2105033;28;20020;-84
2021/08/11 02:01:41;;;;;;;4.20;3.50;;;;;;;10.89;100.00;93418.97;2096715;28;20055;-84
2021/08/11 02:02:44;;;;;;;5.38;3.53;;;;;;;10.83;100.00;93418.69;2089904;28;20024;-85
2021/08/11 02:03:47;;;;;;;3.97;3.67;;;;;;;10.90;100.00;93422.41;2088528;28;20159;-86
2021/08/11 02:04:48;;;;;;;3.92;3.30;;;;;;;10.88;100.00;93420.13;2088669;28;20029;-85
2021/08/11 02:05:50;;;;;;;4.00;3.55;;;;;;;10.89;100.00;93412.84;2096334;28;20048;-86
2021/08/11 02:06:53;;;;;;;5.47;3.78;;;;;;;10.90;100.00;93417.06;2105213;28;20032;-86
2021/08/11 02:07:54;;;;;;;4.28;3.55;;;;;;;10.85;100.00;93420.97;2094122;28;20038;-86
2021/08/11 02:08:57;;;;;;;4.22;3.80;;;;;;;10.90;100.00;93417.81;2088143;28;20020;-87
2021/08/11 02:09:59;;;;;;;4.32;3.45;;;;;;;10.91;100.00;93416.63;2088826;28;20032;-85
2021/08/11 02:11:01;;;;;;;6.93;4.53;;;;;;;10.88;100.00;93414.78;2096652;28;20465;-84
2021/08/11 02:12:02;;;;;;;7.88;4.45;;;;;;;10.91;100.00;93418.56;2096752;28;20024;-87
2021/08/11 02:13:05;;;;;;;7.88;4.10;;;;;;;10.86;100.00;93427.81;2105139;28;20040;-86
2021/08/11 02:14:08;;;;;;;4.20;3.72;;;;;;;10.90;100.00;93417.81;2096790;28;20024;-84
2021/08/11 02:15:11;;;;;;;5.72;4.35;;;;;;;10.90;100.00;93415.13;2089026;28;20021;-85
2021/08/11 02:16:11;;;;;;;4.57;4.18;;;;;;;10.88;100.00;93422.03;2082416;28;20030;-84
2021/08/11 02:17:12;;;;;;;5.72;5.13;;;;;;;10.80;100.00;93426.78;2093078;28;20025;-86
2021/08/11 02:18:13;;;;;;;4.70;4.30;;;;;;;10.84;100.00;93425.56;2096537;28;20021;-84
2021/08/11 02:19:14;;;;;;;4.80;4.25;;;;;;;10.76;100.00;93420.75;2096650;28;20394;-84
2021/08/11 02:20:15;;;;;;;5.18;4.18;;;;;;;10.74;100.00;93421.13;2096588;28;20051;-86
2021/08/11 02:21:16;;;;;;;4.78;4.22;;;;;;;10.76;100.00;93424.16;2096071;28;20039;-87
2021/08/11 02:22:17;;;;;;;4.45;4.00;;;;;;;10.78;100.00;93421.06;2096639;28;20078;-85
2021/08/11 02:23:18;;;;;;;4.00;3.70;;;;;;;10.79;100.00;93428.69;2088602;28;20060;-84
2021/08/11 02:24:19;;;;;;;4.50;4.10;;;;;;;10.79;100.00;93422.56;2096942;28;20134;-84
2021/08/11 02:25:21;;;;;;;4.45;4.00;;;;;;;10.74;100.00;93423.81;2089084;28;20387;-85
2021/08/11 02:26:36;;;;;;;5.13;4.63;;;;;;;10.76;100.00;93426.84;2089020;28;20382;-85
2021/08/11 02:28:07;;;;;;;4.63;4.22;;;;;;;10.68;100.00;93422.03;2092682;28;20111;-86
2021/08/11 02:29:23;;;;;;;5.47;4.05;;;;;;;10.67;100.00;93415.16;2095850;28;20143;-86
2021/08/11 02:30:35;;;;;;;5.63;4.00;;;;;;;10.64;100.00;93429.34;2094101;28;20036;-85
2021/08/11 02:31:46;;;;;;;4.10;3.70;;;;;;;10.66;100.00;93416.31;2098348;28;20028;-86
2021/08/11 02:33:05;;;;;;;6.00;3.45;;;;;;;10.67;100.00;93417.81;2097614;28;20016;-86
2021/08/11 02:34:15;;;;;;;4.30;3.90;;;;;;;10.64;100.00;93418.66;2101314;28;20110;-86
2021/08/11 02:35:26;;;;;;;3.70;3.38;;;;;;;10.63;100.00;93417.91;2089858;28;20414;-86
2021/08/11 02:36:31;;;;;;;4.82;3.80;;;;;;;10.63;100.00;93415.22;2099847;28;20570;-84
2021/08/11 02:37:58;;;;;;;4.82;4.32;;;;;;;10.64;100.00;93421.31;2104969;28;20012;-87
2021/08/11 02:39:07;;;;;;;5.03;4.03;;;;;;;10.66;100.00;93417.06;2082725;28;20033;-85
2021/08/11 02:40:13;;;;;;;4.75;3.70;;;;;;;10.70;100.00;93414.34;2085191;28;20041;-85
2021/08/11 02:41:21;;;;;;;5.28;4.78;;;;;;;10.65;100.00;93417.47;2098177;28;20024;-86
2021/08/11 02:42:30;;;;;;;4.53;4.00;;;;;;;10.62;100.00;93416.38;2095008;28;20330;-86
2021/08/11 02:43:45;;;;;;;5.80;4.32;;;;;;;10.56;100.00;93416.09;2089941;28;20064;-86
2021/08/11 02:44:53;;;;;;;5.15;3.85;;;;;;;10.50;100.00;93416.97;2094060;28;20033;-85
2021/08/11 02:45:59;;;;;;;5.38;3.90;;;;;;;10.50;100.00;93414.31;2097559;28;20031;-83
2021/08/11 02:47:00;;;;;;;5.38;4.00;;;;;;;10.47;100.00;93415.88;2089617;28;20028;-83
2021/08/11 02:48:01;;;;;;;11.98;4.65;;;;;;;10.48;100.00;93408.59;2096668;28;20033;-84
2021/08/11 02:49:06;;;;;;;5.55;4.18;;;;;;;10.45;100.00;93414.78;2096463;28;20032;-84
2021/08/11 02:50:09;;;;;;;5.05;4.18;;;;;;;10.40;100.00;93407.19;2096901;28;20024;-87
2021/08/11 02:51:11;;;;;;;4.30;3.90;;;;;;;10.33;100.00;93408.84;2089057;28;20029;-84
2021/08/11 02:52:13;;;;;;;5.07;3.85;;;;;;;10.37;100.00;93408.78;2096796;28;20470;-87
2021/08/11 02:53:18;;;;;;;4.38;3.97;;;;;;;10.39;100.00;93417.13;2096975;28;20028;-87
2021/08/11 02:54:21;;;;;;;5.50;4.50;;;;;;;10.38;100.00;93409.53;2104764;28;20043;-85
2021/08/11 02:55:23;;;;;;;4.57;3.47;;;;;;;10.37;100.00;93408.78;2104720;28;20028;-85
2021/08/11 02:56:24;;;;;;;4.85;4.25;;;;;;;10.30;100.00;93406.97;2096692;28;20426;-86
2021/08/11 02:57:25;;;;;;;5.00;4.40;;;;;;;10.33;100.00;93411.50;2088611;28;20104;-85
2021/08/11 02:58:26;;;;;;;4.90;4.50;;;;;;;10.29;100.00;93405.47;2096614;28;20051;-87
2021/08/11 02:59:28;;;;;;;4.38;3.92;;;;;;;10.32;100.00;93401.25;2093589;28;20032;-84
2021/08/11 03:00:29;;;;;;;6.45;4.32;;;;;;;10.28;100.00;93405.88;2092208;28;20031;-84
2021/08/11 03:01:30;;;;;;;6.97;4.35;;;;;;;10.32;100.00;93396.66;2087920;28;20500;-84
2021/08/11 03:02:32;;;;;;;4.93;4.43;;;;;;;10.36;100.00;93395.81;2095371;28;20481;-84
2021/08/11 03:03:33;;;;;;;4.72;4.22;;;;;;;10.32;100.00;93399.31;2086409;28;20017;-86
2021/08/11 03:04:34;;;;;;;4.65;4.03;;;;;;;10.31;100.00;93394.34;2088215;28;20056;-83
2021/08/11 03:05:35;;;;;;;4.85;3.65;;;;;;;10.22;100.00;93400.19;2096471;28;20505;-87
2021/08/11 03:06:37;;;;;;;4.13;3.83;;;;;;;10.29;100.00;93399.38;2104302;28;20541;-86
2021/08/11 03:07:39;;;;;;;4.25;3.88;;;;;;;10.29;100.00;93399.38;2103982;28;20024;-84
2021/08/11 03:08:41;;;;;;;5.72;4.15;;;;;;;10.31;100.00;93402.38;2095757;28;20025;-86
2021/08/11 03:09:42;;;;;;;4.43;4.03;;;;;;;10.32;100.00;93403.91;2104680;28;20401;-85
2021/08/11 03:10:43;;;;;;;5.82;4.60;;;;;;;10.36;100.00;93396.59;2097870;28;20021;-87
2021/08/11 03:11:45;;;;;;;4.85;4.35;;;;;;;10.34;100.00;93398.91;2098067;28;20087;-84
2021/08/11 03:12:46;;;;;;;6.63;4.70;;;;;;;10.31;100.00;93403.13;2089260;28;20497;-83
2021/08/11 03:13:48;;;;;;;5.97;4.18;;;;;;;10.27;100.00;93397.13;2081740;28;20469;-84
2021/08/11 03:14:49;;;;;;;5.32;4.50;;;;;;;10.30;100.00;93403.53;2098064;28;20025;-83
2021/08/11 03:15:51;;;;;;;5.18;4.05;;;;;;;10.25;100.00;93402.09;2098039;28;20020;-84
2021/08/11 03:16:52;;;;;;;4.85;3.88;;;;;;;10.24;100.00;93405.16;2097969;28;20155;-87
2021/08/11 03:17:53;;;;;;;6.40;4.43;;;;;;;10.26;100.00;93405.50;2097879;28;20511;-85
2021/08/11 03:18:54;;;;;;;4.50;4.00;;;;;;;10.23;100.00;93404.41;2089822;28;20031;-84
2021/08/11 03:19:55;;;;;;;5.50;4.47;;;;;;;10.24;100.00;93399.81;2085627;28;20028;-86
2021/08/11 03:20:56;;;;;;;5.10;3.55;;;;;;;10.21;100.00;93405.94;2091800;28;20027;-84
2021/08/11 03:21:57;;;;;;;4.35;3.92;;;;;;;10.22;100.00;93405.53;2097607;28;20056;-87
2021/08/11 03:22:58;;;;;;;4.53;3.85;;;;;;;10.24;100.00;93399.81;2097763;28;20055;-85
2021/08/11 03:23:59;;;;;;;4.05;3.70;;;;;;;10.26;100.00;93397.50;2105885;28;20016;-86
2021/08/11 03:25:00;;;;;;;4.95;4.43;;;;;;;10.23;100.00;93411.66;2105958;28;20020;-83
2021/08/11 03:26:01;;;;;;;5.35;4.22;;;;;;;10.22;100.00;93404.78;2097819;28;20055;-85
2021/08/11 03:27:03;;;;;;;4.15;3.70;;;;;;;10.19;100.00;93408.28;2097911;28;20025;-86
2021/08/11 03:28:04;;;;;;;5.43;4.22;;;;;;;10.21;100.00;93406.72;2097951;28;20028;-85
2021/08/11 03:29:05;;;;;;;8.23;4.53;;;;;;;10.21;100.00;93405.94;2106043;28;20027;-85
2021/08/11 03:30:06;;;;;;;4.47;4.07;;;;;;;10.19;100.00;93406.38;2105660;28;20078;-86
2021/08/11 03:31:07;;;;;;;4.97;4.10;;;;;;;10.18;100.00;93410.19;2097941;28;20032;-87
2021/08/11 03:32:08;;;;;;;5.25;4.20;;;;;;;10.16;100.00;93414.44;2097992;28;20126;-85
2021/08/11 03:33:09;;;;;;;4.78;4.35;;;;;;;10.19;100.00;93408.28;2106259;28;20123;-85
2021/08/11 03:34:10;;;;;;;4.30;4.00;;;;;;;10.13;100.00;93410.63;2106123;28;20032;-87
2021/08/11 03:35:11;;;;;;;4.82;4.25;;;;;;;10.15;100.00;93405.66;2097425;28;20626;-84
2021/08/11 03:36:12;;;;;;;5.20;4.38;;;;;;;10.15;100.00;93413.69;2089681;28;20052;-83
2021/08/11 03:37:16;;;;;;;4.88;4.03;;;;;;;10.14;100.00;93414.84;2097888;28;20032;-86
2021/08/11 03:38:17;;;;;;;5.03;4.00;;;;;;;10.09;100.00;93412.59;2090400;28;20020;-85
2021/08/11 03:39:18;;;;;;;5.15;4.20;;;;;;;10.14;100.00;93411.41;2089122;28;20032;-85
2021/08/11 03:40:19;;;;;;;5.68;4.43;;;;;;;10.12;100.00;93413.72;2097537;28;20028;-87
2021/08/11 03:41:20;;;;;;;5.18;3.90;;;;;;;10.13;100.00;93412.56;2105761;28;20579;-88
2021/08/11 03:42:20;;;;;;;5.05;4.50;;;;;;;10.15;100.00;93416.34;2104309;28;20027;-84
2021/08/11 03:43:21;;;;;;;4.07;3.78;;;;;;;10.16;100.00;93417.84;2104803;28;20052;-85
2021/08/11 03:44:22;;;;;;;4.05;3.60;;;;;;;10.08;100.00;93409.19;2089429;28;20029;-85
2021/08/11 03:45:23;;;;;;;4.78;4.20;;;;;;;10.14;100.00;93414.84;2089370;28;20072;-85
2021/08/11 03:46:26;;;;;;;4.68;4.18;;;;;;;10.12;100.00;93416.41;2089421;28;20024;-86
2021/08/11 03:47:27;;;;;;;5.25;4.15;;;;;;;10.10;100.00;93416.81;2097448;28;20051;-87
2021/08/11 03:48:28;;;;;;;5.50;3.90;;;;;;;10.09;100.00;93409.94;2097664;28;20090;-85
2021/08/11 03:49:29;;;;;;;4.22;3.83;;;;;;;10.06;100.00;93416.88;2089516;28;20540;-85
2021/08/11 03:50:30;;;;;;;7.47;4.30;;;;;;;9.98;100.00;93410.13;2089164;28;20485;-87
2021/08/11 03:51:31;;;;;;;4.18;3.60;;;;;;;10.00;100.00;93412.38;2089700;28;20028;-86
2021/08/11 03:52:32;;;;;;;4.82;3.97;;;;;;;10.03;100.00;93417.66;2097248;28;20032;-87
2021/08/11 03:53:33;;;;;;;4.60;4.10;;;;;;;10.02;100.00;93408.16;2097656;28;20020;-87
2021/08/11 03:54:34;;;;;;;5.28;4.20;;;;;;;9.98;100.00;93407.44;2097643;28;20024;-85
2021/08/11 03:55:35;;;;;;;5.20;4.05;;;;;;;9.98;100.00;93415.44;2097825;28;20029;-83
2021/08/11 03:56:36;;;;;;;4.90;4.40;;;;;;;10.00;100.00;93418.47;2097872;28;20412;-83
2021/08/11 03:57:37;;;;;;;6.38;4.22;;;;;;;10.02;100.00;93413.50;2092083;28;20020;-83
2021/08/11 03:58:38;;;;;;;5.22;4.30;;;;;;;9.98;100.00;93415.44;2088615;28;20048;-85
2021/08/11 03:59:39;;;;;;;4.68;4.28;;;;;;;10.02;100.00;93418.81;2097483;28;20020;-86
2021/08/11 04:00:41;;;;;;;4.55;4.10;;;;;;;10.02;100.00;93412.72;2089195;28;20056;-83
2021/08/11 04:01:42;;;;;;;4.20;3.90;;;;;;;10.02;100.00;93412.72;2098209;28;20059;-85
2021/08/11 04:02:43;;;;;;;5.32;4.47;;;;;;;9.93;100.00;93402.56;2097444;28;20029;-84
2021/08/11 04:03:44;;;;;;;4.20;3.80;;;;;;;9.93;100.00;93413.25;2090894;28;20390;-86
2021/08/11 04:04:45;;;;;;;4.50;4.10;;;;;;;9.91;100.00;93420.88;2097161;28;20027;-86
2021/08/11 04:05:46;;;;;;;4.18;3.78;;;;;;;9.95;100.00;93415.50;2088882;28;20515;-86
2021/08/11 04:06:47;;;;;;;5.25;4.32;;;;;;;9.97;100.00;93418.53;2089191;28;20043;-86
2021/08/11 04:07:48;;;;;;;4.70;3.58;;;;;;;9.97;100.00;93419.28;2095584;28;20031;-85
2021/08/11 04:08:49;;;;;;;4.75;4.13;;;;;;;10.01;100.00;93422.66;2101674;28;20110;-86
2021/08/11 04:09:50;;;;;;;4.35;3.65;;;;;;;10.00;100.00;93421.13;2088892;28;20032;-84
2021/08/11 04:10:52;;;;;;;5.10;3.83;;;;;;;10.01;100.00;93414.66;2097399;28;20508;-83
2021/08/11 04:11:53;;;;;;;5.55;4.15;;;;;;;10.02;100.00;93415.41;2098036;28;20107;-84
2021/08/11 04:12:54;;;;;;;5.30;4.00;;;;;;;9.99;100.00;93419.63;2097357;28;20084;-84
2021/08/11 04:13:55;;;;;;;5.60;4.28;;;;;;;10.01;100.00;93411.22;2097575;28;20169;-84
2021/08/11 04:14:56;;;;;;;4.28;3.80;;;;;;;9.95;100.00;93418.16;2105798;28;20031;-84
2021/08/11 04:15:57;;;;;;;4.30;3.90;;;;;;;9.96;100.00;93419.66;2096898;28;20117;-88
2021/08/11 04:16:58;;;;;;;5.43;4.18;;;;;;;9.98;100.00;93422.72;2097376;28;20389;-84
2021/08/11 04:17:59;;;;;;;4.70;4.05;;;;;;;9.99;100.00;93424.22;2105868;28;20022;-86
2021/08/11 04:19:00;;;;;;;4.22;3.92;;;;;;;10.00;100.00;93423.06;2106009;28;20020;-84
2021/08/11 04:20:01;;;;;;;5.18;4.07;;;;;;;10.00;100.00;93413.13;2105781;28;20523;-89
2021/08/11 04:21:02;;;;;;;6.65;4.45;;;;;;;10.01;100.00;93420.00;2093967;28;20034;-86
2021/08/11 04:22:03;;;;;;;4.30;3.90;;;;;;;10.04;100.00;93427.19;2104911;28;20035;-83
2021/08/11 04:23:07;;;;;;;5.18;3.95;;;;;;;10.00;100.00;93413.13;2097068;28;20586;-83
2021/08/11 04:24:08;;;;;;;6.32;4.05;;;;;;;10.00;100.00;93421.13;2097900;28;20024;-84
2021/08/11 04:25:09;;;;;;;5.18;4.10;;;;;;;9.97;100.00;93421.22;2097583;28;20028;-84
2021/08/11 04:26:10;;;;;;;4.68;4.13;;;;;;;10.02;100.00;93426.09;2097272;28;20028;-85
2021/08/11 04:27:11;;;;;;;4.45;3.85;;;;;;;9.99;100.00;93432.97;2088645;28;20474;-84
2021/08/11 04:28:12;;;;;;;4.20;3.70;;;;;;;10.03;100.00;93425.66;2089043;28;20082;-84
2021/08/11 04:29:13;;;;;;;7.45;3.90;;;;;;;10.00;100.00;93421.13;2097204;28;20032;-84
2021/08/11 04:30:14;;;;;;;6.63;4.15;;;;;;;10.02;100.00;93421.50;2105687;28;20477;-84
2021/08/11 04:31:15;;;;;;;4.28;3.88;;;;;;;10.05;100.00;93426.03;2097054;28;20060;-83
2021/08/11 04:32:16;;;;;;;5.25;3.88;;;;;;;10.04;100.00;93424.50;2089083;28;20037;-86
2021/08/11 04:33:18;;;;;;;6.38;4.22;;;;;;;10.06;100.00;93427.53;2094660;28;20032;-83
2021/08/11 04:34:19;;;;;;;4.45;4.05;;;;;;;10.04;100.00;93419.16;2089184;28;20035;-88
2021/08/11 04:35:20;;;;;;;4.15;3.63;;;;;;;10.04;100.00;93431.75;2097455;28;20028;-85
2021/08/11 04:36:21;;;;;;;4.95;3.80;;;;;;;10.01;100.00;93425.34;2088830;28;20453;-86
2021/08/11 04:37:22;;;;;;;4.47;3.63;;;;;;;10.05;100.00;93419.91;2088990;28;20554;-85
2021/08/11 04:38:23;;;;;;;4.03;3.63;;;;;;;10.07;100.00;93431.72;2093093;28;20021;-87
2021/08/11 04:39:24;;;;;;;4.28;3.88;;;;;;;10.10;100.00;93419.47;2097444;28;20488;-87
2021/08/11 04:40:25;;;;;;;5.15;3.60;;;;;;;10.12;100.00;93417.16;2089187;28;20375;-83
2021/08/11 04:41:26;;;;;;;3.67;3.25;;;;;;;10.16;100.00;93425.88;2088567;28;20112;-83
2021/08/11 04:42:27;;;;;;;5.65;4.40;;;;;;;10.19;100.00;93422.41;2098690;28;20028;-84
2021/08/11 04:43:28;;;;;;;5.25;4.00;;;;;;;10.22;100.00;93423.47;2095436;28;20024;-85
2021/08/11 04:44:29;;;;;;;6.03;4.22;;;;;;;10.23;100.00;93422.34;2096716;28;20020;-86
2021/08/11 04:45:31;;;;;;;4.78;4.05;;;;;;;10.24;100.00;93432.66;2088942;28;20025;-86
2021/08/11 04:46:32;;;;;;;5.00;3.83;;;;;;;10.29;100.00;93431.44;2089055;28;20020;-84
2021/08/11 04:47:33;;;;;;;4.82;4.15;;;;;;;10.30;100.00;93424.91;2105699;28;20035;-84
2021/08/11 04:48:34;;;;;;;4.72;4.22;;;;;;;10.38;100.00;93423.66;2097123;28;20036;-86
2021/08/11 04:49:35;;;;;;;4.03;3.60;;;;;;;10.37;100.00;93424.06;2089009;28;20454;-88
2021/08/11 04:50:36;;;;;;;4.32;3.92;;;;;;;10.38;100.00;93420.97;2088376;28;20478;-85
2021/08/11 04:51:37;;;;;;;4.32;3.83;;;;;;;10.40;100.00;93423.22;2089341;28;20017;-85
2021/08/11 04:52:38;;;;;;;4.38;3.97;;;;;;;10.41;100.00;93419.41;2097252;28;20484;-86